Time;durP1;ratioP1;P1;durP2;ratioP2;P2;SDS_P1;SDS_P2;PMS_P1;PMS_P2;Temp;Humidity;BMP_temperature;BMP_pressure;BME280_temperature;BME280_humidity;BME280_pressure;Samples;Min_cycle;Max_cycle;Signal;HPM_P1;HPM_P2
2021/08/27 00:01:39;;;;;;;2.60;2.40;;;25.10;97.90;;;;;;5038409;28;20464;-44
2021/08/27 00:04:11;;;;;;;3.57;2.53;;;25.10;97.90;;;;;;5038156;28;20494;-42
2021/08/27 00:06:43;;;;;;;2.93;2.70;;;25.20;95.90;;;;;;5038321;28;20457;-41
2021/08/27 00:09:14;;;;;;;2.50;2.30;;;25.30;95.60;;;;;;5037382;28;20542;-41
2021/08/27 00:11:46;;;;;;;2.87;2.67;;;25.30;97.20;;;;;;5038104;28;20450;-42
2021/08/27 00:14:17;;;;;;;2.97;2.77;;;25.00;97.80;;;;;;5055861;28;20448;-41
2021/08/27 00:16:48;;;;;;;3.90;2.80;;;24.60;99.40;;;;;;5058076;28;20444;-41
2021/08/27 00:19:19;;;;;;;3.97;2.97;;;24.30;99.90;;;;;;5044972;28;20767;-41
2021/08/27 00:22:11;;;;;;;2.97;2.67;;;24.00;99.90;;;;;;4971906;28;2023177;-40
2021/08/27 00:24:42;;;;;;;6.67;3.80;;;23.70;99.90;;;;;;5031523;28;20839;-46
2021/08/27 00:27:13;;;;;;;4.27;3.33;;;23.40;99.90;;;;;;5049416;28;20449;-42
2021/08/27 00:29:44;;;;;;;6.13;3.47;;;22.90;99.90;;;;;;5059759;28;20552;-44
2021/08/27 00:32:16;;;;;;;4.93;2.93;;;22.70;99.90;;;;;;5061482;28;20437;-44
2021/08/27 00:34:47;;;;;;;3.70;3.37;;;22.60;99.90;;;;;;5027233;28;20457;-46
2021/08/27 00:37:20;;;;;;;3.90;3.50;;;22.50;99.90;;;;;;5050168;28;20448;-45
2021/08/27 00:39:51;;;;;;;6.60;3.50;;;22.40;99.90;;;;;;5061523;28;20457;-43
2021/08/27 00:42:22;;;;;;;4.67;3.70;;;22.30;99.90;;;;;;5046124;28;20446;-42
2021/08/27 00:44:53;;;;;;;3.47;3.17;;;22.30;99.90;;;;;;5058716;28;20478;-49
2021/08/27 00:47:24;;;;;;;5.10;3.50;;;22.30;99.90;;;;;;5042707;28;20561;-50
2021/08/27 00:49:56;;;;;;;4.17;3.07;;;22.40;99.90;;;;;;5053502;28;20496;-47
2021/08/27 00:52:29;;;;;;;3.77;3.47;;;22.30;99.90;;;;;;5061525;28;20816;-45
2021/08/27 00:55:00;;;;;;;3.37;3.00;;;22.50;99.90;;;;;;5057007;28;20502;-47
2021/08/27 00:57:31;;;;;;;3.83;3.40;;;22.60;99.90;;;;;;5041848;28;20457;-42
2021/08/27 01:00:02;;;;;;;4.10;3.80;;;22.70;99.90;;;;;;5041988;28;20446;-42
2021/08/27 01:02:33;;;;;;;3.90;3.13;;;22.70;99.90;;;;;;5046907;28;20433;-49
2021/08/27 01:05:07;;;;;;;8.73;5.90;;;22.70;99.90;;;;;;5061741;28;20453;-42
2021/08/27 01:07:49;;;;;;;5.70;5.17;;;22.60;99.90;;;;;;5048469;28;20457;-46
2021/08/27 01:10:24;;;;;;;4.97;4.47;;;22.50;99.90;;;;;;5056362;28;20484;-42
2021/08/27 01:13:06;;;;;;;11.23;7.17;;;22.50;99.90;;;;;;5060840;28;20496;-46
2021/08/27 01:15:47;;;;;;;7.20;6.20;;;22.20;99.90;;;;;;5056111;27;20454;-42
2021/08/27 01:18:27;;;;;;;6.17;4.20;;;22.20;99.90;;;;;;5042934;28;20423;-43
2021/08/27 01:21:27;;;;;;;4.20;3.80;;;21.90;99.90;;;;;;5025917;28;20476;-42
2021/08/27 01:24:02;;;;;;;7.27;3.50;;;21.60;99.90;;;;;;5041106;28;20586;-45
2021/08/27 01:26:35;;;;;;;3.70;3.40;;;21.60;99.90;;;;;;5041479;28;20426;-45
2021/08/27 01:29:08;;;;;;;5.17;3.67;;;21.40;99.90;;;;;;5028770;28;20583;-50
2021/08/27 01:31:46;;;;;;;4.03;3.63;;;21.40;99.90;;;;;;5036861;28;20495;-50
2021/08/27 01:34:37;;;;;;;4.40;3.43;;;21.20;99.90;;;;;;5060700;28;20423;-52
2021/08/27 01:37:12;;;;;;;4.67;3.70;;;21.20;99.90;;;;;;5061066;28;20427;-51
2021/08/27 01:39:48;;;;;;;4.63;3.57;;;21.20;99.90;;;;;;5027430;28;20499;-43
2021/08/27 01:42:21;;;;;;;5.43;4.00;;;21.20;99.90;;;;;;5060864;28;20423;-42
2021/08/27 01:44:55;;;;;;;4.73;3.93;;;21.10;99.90;;;;;;5049362;28;20465;-47
2021/08/27 01:47:29;;;;;;;4.83;4.33;;;21.00;99.90;;;;;;5041558;28;20453;-42
2021/08/27 01:50:03;;;;;;;4.77;4.13;;;21.00;99.90;;;;;;5030164;28;20467;-48
2021/08/27 01:52:36;;;;;;;4.73;3.77;;;20.90;99.90;;;;;;5060578;28;20921;-44
2021/08/27 01:55:09;;;;;;;5.30;4.80;;;20.80;99.90;;;;;;5060728;28;20475;-46
2021/08/27 01:57:41;;;;;;;6.37;4.50;;;20.80;99.90;;;;;;5059253;28;20463;-45
2021/08/27 02:00:13;;;;;;;4.30;3.90;;;20.70;99.90;;;;;;5041505;28;20442;-45
2021/08/27 02:02:45;;;;;;;5.10;4.30;;;20.60;99.90;;;;;;5049998;28;20474;-45
2021/08/27 02:05:19;;;;;;;5.10;4.70;;;20.50;99.90;;;;;;5060533;28;20554;-45
2021/08/27 02:07:52;;;;;;;5.40;4.90;;;20.40;99.90;;;;;;5059714;28;20509;-44
2021/08/27 02:10:27;;;;;;;4.97;4.50;;;20.30;99.90;;;;;;5053940;28;20556;-44
2021/08/27 02:12:58;;;;;;;5.47;4.40;;;20.40;99.90;;;;;;5050214;28;20551;-45
2021/08/27 02:15:32;;;;;;;6.17;4.90;;;20.40;99.90;;;;;;5060832;28;20419;-43
2021/08/27 02:18:04;;;;;;;5.77;5.17;;;20.30;99.90;;;;;;5040750;28;20533;-49
2021/08/27 02:20:38;;;;;;;5.10;4.60;;;20.10;99.90;;;;;;5040449;28;20587;-46
2021/08/27 02:23:11;;;;;;;5.10;4.60;;;20.10;99.90;;;;;;5039933;28;20448;-43
2021/08/27 02:25:47;;;;;;;5.17;4.67;;;20.10;99.90;;;;;;5040099;28;20457;-45
2021/08/27 02:28:21;;;;;;;5.83;5.23;;;20.10;99.90;;;;;;5024062;28;20420;-44
2021/08/27 02:30:53;;;;;;;4.97;4.50;;;20.00;99.90;;;;;;5041800;28;20504;-47
2021/08/27 02:33:25;;;;;;;6.43;4.80;;;20.10;99.90;;;;;;5040919;28;20514;-52
2021/08/27 02:36:01;;;;;;;5.20;4.43;;;20.00;99.90;;;;;;5040171;28;20471;-45
2021/08/27 02:38:34;;;;;;;4.90;4.27;;;20.00;99.90;;;;;;5031592;28;20460;-47
2021/08/27 02:41:06;;;;;;;6.10;5.13;;;19.90;99.90;;;;;;5049071;28;20453;-42
2021/08/27 02:43:37;;;;;;;5.33;4.80;;;19.90;99.90;;;;;;5053251;28;20431;-48
2021/08/27 02:46:08;;;;;;;5.27;4.70;;;19.90;99.90;;;;;;5059392;28;20439;-46
2021/08/27 02:48:39;;;;;;;4.40;4.00;;;19.90;99.90;;;;;;5054291;28;20469;-46
2021/08/27 02:51:15;;;;;;;5.30;4.50;;;19.80;99.90;;;;;;5049523;28;20495;-46
2021/08/27 02:53:51;;;;;;;4.10;3.67;;;19.90;99.90;;;;;;5042643;28;20432;-49
2021/08/27 02:56:26;;;;;;;5.40;4.50;;;19.80;99.90;;;;;;5024156;28;20449;-47
2021/08/27 02:58:59;;;;;;;4.37;3.93;;;19.80;99.90;;;;;;5045250;28;20474;-49
2021/08/27 03:01:37;;;;;;;4.17;3.70;;;19.90;99.90;;;;;;5059551;28;20869;-46
2021/08/27 03:04:19;;;;;;;4.93;4.43;;;19.80;99.90;;;;;;5059225;28;20471;-44
2021/08/27 03:06:56;;;;;;;3.20;2.97;;;19.80;99.90;;;;;;5059610;28;20451;-46
2021/08/27 03:09:31;;;;;;;3.27;2.97;;;19.90;99.90;;;;;;5046759;28;20449;-42
2021/08/27 03:12:06;;;;;;;4.07;3.40;;;19.90;99.90;;;;;;5039542;28;20432;-43
2021/08/27 03:14:40;;;;;;;3.80;3.40;;;19.90;99.90;;;;;;5039422;28;20449;-43
2021/08/27 03:17:15;;;;;;;2.90;2.23;;;19.90;99.90;;;;;;5031233;28;20428;-43
2021/08/27 03:20:09;;;;;;;3.77;3.47;;;19.90;99.90;;;;;;5055489;28;20430;-40
2021/08/27 03:22:47;;;;;;;2.60;2.40;;;20.00;99.90;;;;;;5057471;28;20452;-43
2021/08/27 03:25:22;;;;;;;3.20;3.00;;;19.90;99.90;;;;;;5059267;28;20963;-44
2021/08/27 03:27:57;;;;;;;3.23;2.37;;;20.00;99.90;;;;;;5048167;28;20439;-44
2021/08/27 03:30:30;;;;;;;3.20;2.90;;;20.00;99.90;;;;;;5031377;28;20443;-45
2021/08/27 03:33:04;;;;;;;2.90;2.70;;;20.00;99.90;;;;;;5044217;28;20477;-45
2021/08/27 03:35:35;;;;;;;2.63;2.30;;;20.00;99.90;;;;;;5039353;28;20492;-48
2021/08/27 03:38:10;;;;;;;2.40;2.00;;;19.90;99.90;;;;;;5050349;28;20416;-45
2021/08/27 03:40:42;;;;;;;2.37;2.17;;;19.90;99.90;;;;;;5039847;28;20437;-46
2021/08/27 03:43:15;;;;;;;1.60;1.50;;;19.90;99.90;;;;;;5039030;28;20453;-42
2021/08/27 03:45:48;;;;;;;1.73;1.63;;;19.90;99.90;;;;;;5039154;28;20457;-43
2021/08/27 03:48:21;;;;;;;1.50;1.40;;;19.80;99.90;;;;;;5026805;28;20493;-48
2021/08/27 03:50:54;;;;;;;2.50;1.37;;;19.80;99.90;;;;;;5057497;28;20483;-46
2021/08/27 03:53:27;;;;;;;2.30;1.77;;;19.80;99.90;;;;;;5058313;28;20423;-46
2021/08/27 03:55:59;;;;;;;1.37;1.27;;;19.80;99.90;;;;;;5059922;28;20723;-45
2021/08/27 03:58:30;;;;;;;1.40;1.30;;;19.80;99.90;;;;;;5042607;28;20424;-44
2021/08/27 04:01:02;;;;;;;1.50;1.10;;;19.70;99.90;;;;;;5042481;28;20552;-50
2021/08/27 04:03:34;;;;;;;1.30;1.20;;;19.70;99.90;;;;;;5042696;28;20555;-41
2021/08/27 04:06:07;;;;;;;1.23;1.13;;;19.50;99.90;;;;;;5040365;28;20773;-45
2021/08/27 04:08:41;;;;;;;1.63;1.00;;;19.40;99.90;;;;;;5042062;28;20428;-44
2021/08/27 04:11:15;;;;;;;1.50;1.37;;;19.40;99.90;;;;;;5043618;28;20462;-45
2021/08/27 04:13:47;;;;;;;1.53;1.10;;;19.40;99.90;;;;;;5042682;28;20420;-47
2021/08/27 04:16:18;;;;;;;1.00;1.00;;;19.30;99.90;;;;;;5056470;28;20424;-46
2021/08/27 04:18:50;;;;;;;1.13;1.00;;;19.20;99.90;;;;;;5043439;28;20467;-46
2021/08/27 04:21:21;;;;;;;1.37;1.10;;;19.20;99.90;;;;;;5042211;28;20485;-43
2021/08/27 04:23:54;;;;;;;1.20;1.10;;;19.00;99.90;;;;;;5041487;28;20486;-43
2021/08/27 04:26:25;;;;;;;2.07;1.90;;;18.90;99.90;;;;;;5053238;28;20423;-43
2021/08/27 04:28:57;;;;;;;2.30;1.63;;;18.80;99.90;;;;;;5060784;28;20457;-47
2021/08/27 04:31:28;;;;;;;3.43;1.60;;;18.80;99.90;;;;;;5061561;28;20513;-42
2021/08/27 04:34:00;;;;;;;2.00;1.60;;;18.80;99.90;;;;;;5054458;28;20454;-51
2021/08/27 04:36:31;;;;;;;2.07;1.50;;;18.80;99.90;;;;;;5053693;28;20457;-44
2021/08/27 04:39:04;;;;;;;1.73;1.57;;;18.80;99.90;;;;;;5060872;28;20457;-48
2021/08/27 04:41:35;;;;;;;1.90;1.50;;;18.80;99.90;;;;;;5025896;28;20545;-44
2021/08/27 04:44:07;;;;;;;2.43;1.57;;;18.80;99.90;;;;;;5042930;28;20507;-43
2021/08/27 04:46:38;;;;;;;2.57;1.90;;;18.80;99.90;;;;;;5041789;28;20458;-42
2021/08/27 04:49:09;;;;;;;3.10;1.60;;;18.70;99.90;;;;;;5033107;28;20436;-45
2021/08/27 04:51:40;;;;;;;2.40;1.67;;;18.70;99.90;;;;;;5026108;28;20496;-45
2021/08/27 04:54:13;;;;;;;3.33;1.97;;;18.60;99.90;;;;;;5041069;28;20494;-42
2021/08/27 04:56:44;;;;;;;2.80;1.80;;;18.60;99.90;;;;;;5041597;28;20445;-42
2021/08/27 04:59:16;;;;;;;3.50;1.80;;;18.60;99.90;;;;;;5056909;28;20790;-44
2021/08/27 05:01:47;;;;;;;2.13;1.87;;;18.50;99.90;;;;;;5032608;28;20449;-43
2021/08/27 05:04:18;;;;;;;3.40;1.90;;;18.40;99.90;;;;;;5052207;28;20480;-44
2021/08/27 05:06:50;;;;;;;2.40;1.73;;;18.30;99.90;;;;;;5054593;28;20608;-43
2021/08/27 05:09:24;;;;;;;2.43;1.80;;;18.30;99.90;;;;;;5060331;28;20445;-41
2021/08/27 05:11:55;;;;;;;2.40;2.20;;;18.30;99.90;;;;;;5059679;28;20496;-48
2021/08/27 05:14:26;;;;;;;4.90;1.97;;;18.10;99.90;;;;;;5061013;28;20501;-44
2021/08/27 05:16:57;;;;;;;3.23;1.90;;;18.10;99.90;;;;;;5044013;28;20473;-49
2021/08/27 05:19:28;;;;;;;3.20;2.20;;;18.00;99.90;;;;;;5045431;28;20456;-45
2021/08/27 05:21:59;;;;;;;2.43;2.07;;;17.90;99.90;;;;;;5060304;28;20568;-44
2021/08/27 05:24:32;;;;;;;4.07;2.13;;;17.80;99.90;;;;;;5048000;28;20441;-49
2021/08/27 05:27:04;;;;;;;5.03;2.33;;;17.80;99.90;;;;;;5044741;28;20448;-47
2021/08/27 05:29:35;;;;;;;2.40;2.17;;;17.70;99.90;;;;;;5052265;28;20449;-47
2021/08/27 05:32:07;;;;;;;2.07;1.90;;;17.70;99.90;;;;;;5051384;28;20521;-46
2021/08/27 05:34:38;;;;;;;3.53;2.40;;;17.60;99.90;;;;;;5060756;28;20807;-51
2021/08/27 05:37:09;;;;;;;3.40;2.53;;;17.60;99.90;;;;;;5058726;28;20505;-47
2021/08/27 05:39:42;;;;;;;4.97;2.70;;;17.60;99.90;;;;;;5027117;28;20428;-42
2021/08/27 05:42:13;;;;;;;3.40;2.20;;;17.50;99.90;;;;;;5041091;28;20506;-45
2021/08/27 05:44:44;;;;;;;2.20;2.00;;;17.40;99.90;;;;;;5055056;28;20529;-45
2021/08/27 05:47:15;;;;;;;2.50;2.30;;;17.40;99.90;;;;;;5057364;28;20923;-45
2021/08/27 05:49:46;;;;;;;2.40;2.20;;;17.40;99.90;;;;;;5060532;28;20449;-44
2021/08/27 05:52:18;;;;;;;2.50;2.30;;;17.40;99.90;;;;;;5060496;28;20488;-45
2021/08/27 05:54:51;;;;;;;3.80;2.40;;;17.30;99.90;;;;;;5059472;28;20479;-48
2021/08/27 05:57:22;;;;;;;5.40;2.60;;;17.30;99.90;;;;;;5060001;28;20819;-46
2021/08/27 05:59:53;;;;;;;2.30;2.10;;;17.30;99.90;;;;;;5053714;28;20449;-42
2021/08/27 06:02:24;;;;;;;2.47;2.27;;;17.40;99.90;;;;;;5040930;28;20456;-43
2021/08/27 06:04:55;;;;;;;3.30;2.30;;;17.40;99.90;;;;;;5040889;28;20496;-45
2021/08/27 06:07:26;;;;;;;2.67;1.97;;;17.40;99.90;;;;;;5041627;28;20481;-43
2021/08/27 06:10:00;;;;;;;2.30;2.10;;;17.50;99.90;;;;;;5040102;28;20442;-43
2021/08/27 06:12:33;;;;;;;2.73;2.50;;;17.50;99.90;;;;;;5040512;28;20530;-42
2021/08/27 06:15:04;;;;;;;2.43;2.23;;;17.60;99.90;;;;;;5055248;28;20474;-44
2021/08/27 06:17:35;;;;;;;2.40;2.20;;;17.60;99.90;;;;;;5057519;28;20620;-45
2021/08/27 06:20:08;;;;;;;2.20;2.00;;;17.60;99.90;;;;;;5060163;28;21024;-45
2021/08/27 06:22:40;;;;;;;2.50;2.00;;;17.60;99.90;;;;;;5058920;28;20502;-43
2021/08/27 06:25:13;;;;;;;3.10;2.80;;;17.60;99.90;;;;;;5059719;28;20448;-39
2021/08/27 06:27:44;;;;;;;3.50;2.60;;;17.60;99.90;;;;;;5053621;28;20455;-41
2021/08/27 06:30:15;;;;;;;4.33;2.50;;;17.60;99.90;;;;;;5058357;28;20448;-41
2021/08/27 06:32:47;;;;;;;2.83;2.63;;;17.60;99.90;;;;;;5059765;28;20509;-42
2021/08/27 06:35:18;;;;;;;2.57;2.37;;;17.60;99.90;;;;;;5059651;28;20448;-44
2021/08/27 06:40:39;;;;;;;3.00;2.70;;;17.60;99.90;;;;;;5060184;28;20441;-43
2021/08/27 06:43:10;;;;;;;2.50;2.30;;;17.60;99.90;;;;;;5043787;28;20506;-41
2021/08/27 06:45:41;;;;;;;2.30;2.10;;;17.50;99.90;;;;;;5027965;28;20459;-41
2021/08/27 06:48:12;;;;;;;2.80;2.60;;;17.50;99.90;;;;;;5058038;28;20806;-42
2021/08/27 06:50:43;;;;;;;2.50;2.30;;;17.50;99.90;;;;;;5059643;28;20513;-44
2021/08/27 06:53:15;;;;;;;3.20;1.87;;;17.50;99.90;;;;;;5058432;28;20487;-39
2021/08/27 06:55:47;;;;;;;2.37;1.90;;;17.40;99.90;;;;;;5057783;28;20442;-46
2021/08/27 06:58:19;;;;;;;3.20;2.33;;;17.30;99.90;;;;;;5049306;28;20453;-45
2021/08/27 07:00:50;;;;;;;4.23;2.60;;;17.20;99.90;;;;;;5039858;28;20457;-41
2021/08/27 07:03:22;;;;;;;4.17;2.40;;;17.20;99.90;;;;;;5040129;28;20944;-43
2021/08/27 07:05:53;;;;;;;2.53;2.33;;;17.20;99.90;;;;;;5039966;28;20494;-40
2021/08/27 07:08:25;;;;;;;2.33;2.10;;;17.20;99.90;;;;;;5048672;28;20456;-42
2021/08/27 07:10:58;;;;;;;2.63;2.30;;;17.20;99.90;;;;;;5057866;28;20444;-44
2021/08/27 07:13:29;;;;;;;4.17;2.70;;;17.30;99.90;;;;;;5056284;28;20484;-41
2021/08/27 07:16:00;;;;;;;2.00;1.90;;;17.30;99.90;;;;;;5046684;28;20448;-43
2021/08/27 07:18:31;;;;;;;3.40;1.90;;;17.40;99.90;;;;;;5059455;28;20456;-43
2021/08/27 07:21:03;;;;;;;2.70;2.30;;;17.30;99.90;;;;;;5059489;28;20491;-41
2021/08/27 07:23:35;;;;;;;2.10;1.97;;;17.30;99.90;;;;;;5058755;28;20472;-40
2021/08/27 07:26:08;;;;;;;2.10;1.80;;;17.40;99.90;;;;;;5047659;28;20437;-40
2021/08/27 07:28:39;;;;;;;3.13;2.03;;;17.40;99.90;;;;;;5039889;28;20967;-40
2021/08/27 07:31:10;;;;;;;2.37;2.10;;;17.40;99.90;;;;;;5044547;28;20747;-40
2021/08/27 07:33:41;;;;;;;2.50;2.30;;;17.50;99.90;;;;;;5062031;28;20985;-40
2021/08/27 07:36:12;;;;;;;2.93;2.20;;;17.50;99.90;;;;;;5062925;28;20444;-40
2021/08/27 07:38:44;;;;;;;2.20;1.80;;;17.50;99.90;;;;;;5038675;28;20458;-42
2021/08/27 07:41:16;;;;;;;2.10;1.93;;;17.50;99.90;;;;;;5042012;28;20930;-40
2021/08/27 07:43:47;;;;;;;2.70;2.50;;;17.50;99.90;;;;;;5043550;28;20438;-40
2021/08/27 07:46:19;;;;;;;2.67;2.20;;;17.40;99.90;;;;;;5043335;28;20457;-41
2021/08/27 07:48:50;;;;;;;2.77;1.87;;;17.40;99.90;;;;;;5043075;28;20460;-40
2021/08/27 07:51:21;;;;;;;3.90;2.60;;;17.40;99.90;;;;;;5043708;28;20800;-40
2021/08/27 07:53:52;;;;;;;2.80;1.90;;;17.50;99.90;;;;;;5057681;28;20484;-40
2021/08/27 07:56:25;;;;;;;2.40;2.20;;;17.50;99.90;;;;;;5042956;28;20484;-41
2021/08/27 07:58:56;;;;;;;2.40;2.17;;;17.50;99.90;;;;;;5042880;28;20478;-40
2021/08/27 08:01:27;;;;;;;2.30;2.10;;;17.50;99.90;;;;;;5042951;28;20457;-41
2021/08/27 08:04:00;;;;;;;2.63;2.43;;;17.50;99.90;;;;;;5043072;28;20909;-41
2021/08/27 08:06:32;;;;;;;2.50;2.17;;;17.50;99.90;;;;;;5053641;28;20449;-40
2021/08/27 08:09:04;;;;;;;2.70;2.50;;;17.50;99.90;;;;;;5047371;28;20453;-40
2021/08/27 08:11:37;;;;;;;3.27;2.60;;;17.40;99.90;;;;;;5059194;28;20466;-43
2021/08/27 08:14:08;;;;;;;2.57;2.37;;;17.40;99.90;;;;;;5043132;28;20484;-41
2021/08/27 08:16:39;;;;;;;3.90;2.67;;;17.40;99.90;;;;;;5042812;28;20526;-44
2021/08/27 08:19:11;;;;;;;3.30;2.67;;;17.40;99.90;;;;;;5042423;28;20457;-41
2021/08/27 08:21:43;;;;;;;3.03;2.20;;;17.30;99.90;;;;;;5059361;28;20484;-40
2021/08/27 08:24:14;;;;;;;3.10;2.37;;;17.40;99.90;;;;;;5042183;28;20457;-41
2021/08/27 08:26:47;;;;;;;2.70;2.50;;;17.40;99.90;;;;;;5041024;28;20453;-39
2021/08/27 08:29:18;;;;;;;2.53;2.33;;;17.40;99.90;;;;;;5038224;28;20449;-45
2021/08/27 08:31:51;;;;;;;2.80;2.47;;;17.40;99.90;;;;;;5056909;28;20457;-47
2021/08/27 08:34:22;;;;;;;2.43;2.23;;;17.30;99.90;;;;;;5061413;28;20487;-46
2021/08/27 08:36:54;;;;;;;4.20;2.67;;;17.40;99.90;;;;;;5056011;28;21116;-44
2021/08/27 08:39:25;;;;;;;2.97;2.77;;;17.30;99.90;;;;;;5041662;28;20498;-48
2021/08/27 08:41:58;;;;;;;2.40;2.20;;;17.30;99.90;;;;;;5042220;28;20468;-46
2021/08/27 08:44:29;;;;;;;3.17;2.50;;;17.30;99.90;;;;;;5045182;28;20449;-46
2021/08/27 08:47:01;;;;;;;2.40;2.20;;;17.30;99.90;;;;;;5055203;28;20449;-49
2021/08/27 08:49:38;;;;;;;3.13;2.83;;;17.30;99.90;;;;;;5041879;28;20450;-45
2021/08/27 08:52:10;;;;;;;2.60;2.40;;;17.30;99.90;;;;;;5058593;28;20452;-44
2021/08/27 08:54:41;;;;;;;5.13;2.60;;;17.30;99.90;;;;;;5060374;28;20932;-46
2021/08/27 08:57:14;;;;;;;2.80;1.97;;;17.40;99.90;;;;;;5061630;28;20445;-46
2021/08/27 08:59:45;;;;;;;3.07;2.80;;;17.30;99.90;;;;;;5051944;28;20605;-46
2021/08/27 09:02:16;;;;;;;2.40;2.20;;;17.30;99.90;;;;;;5042087;28;20474;-45
2021/08/27 09:04:47;;;;;;;2.77;2.57;;;17.40;99.90;;;;;;5029478;28;20452;-43
2021/08/27 09:07:19;;;;;;;3.10;2.80;;;17.40;99.90;;;;;;5061586;28;20453;-44
2021/08/27 09:09:50;;;;;;;2.80;2.60;;;17.30;99.90;;;;;;5060531;28;20456;-46
2021/08/27 09:12:25;;;;;;;3.50;2.50;;;17.30;99.90;;;;;;5061510;28;20440;-44
2021/08/27 09:15:01;;;;;;;2.70;2.50;;;17.30;99.90;;;;;;5057048;28;20477;-42
2021/08/27 09:17:34;;;;;;;2.63;2.40;;;17.30;99.90;;;;;;5041625;28;20477;-44
2021/08/27 09:20:08;;;;;;;3.03;2.50;;;17.30;99.90;;;;;;5054632;28;20540;-42
2021/08/27 09:25:38;;;;;;;3.30;3.00;;;17.20;99.90;;;;;;5061276;28;20448;-44
2021/08/27 09:28:13;;;;;;;2.60;2.40;;;17.30;99.90;;;;;;5060573;28;20578;-45
2021/08/27 09:30:55;;;;;;;2.90;2.63;;;17.30;99.90;;;;;;5045815;28;20605;-42
2021/08/27 09:33:29;;;;;;;3.03;2.83;;;17.20;99.90;;;;;;5042607;28;20469;-44
2021/08/27 09:36:02;;;;;;;3.87;2.57;;;17.20;99.90;;;;;;5041143;28;20452;-46
2021/08/27 09:38:35;;;;;;;2.73;2.50;;;17.20;99.90;;;;;;5040752;28;20495;-40
2021/08/27 09:41:07;;;;;;;4.73;2.67;;;17.20;99.90;;;;;;5025575;28;20458;-46
2021/08/27 09:43:51;;;;;;;5.93;3.00;;;17.30;99.90;;;;;;5050093;28;20461;-47
2021/08/27 09:46:36;;;;;;;2.30;2.00;;;17.30;99.90;;;;;;5061194;28;20497;-45
2021/08/27 09:49:27;;;;;;;4.33;3.47;;;17.30;99.90;;;;;;5033988;28;20453;-40
2021/08/27 09:51:59;;;;;;;3.80;2.50;;;17.20;99.90;;;;;;5059849;28;20457;-45
2021/08/27 09:54:32;;;;;;;2.90;2.70;;;17.20;99.90;;;;;;5060002;28;20472;-46
2021/08/27 09:57:04;;;;;;;3.43;3.13;;;17.20;99.90;;;;;;5056657;28;20453;-46
2021/08/27 09:59:43;;;;;;;2.90;2.70;;;17.30;99.90;;;;;;5040742;28;20549;-45
2021/08/27 10:02:15;;;;;;;2.83;2.43;;;17.30;99.90;;;;;;5052588;28;20864;-45
2021/08/27 10:04:54;;;;;;;2.97;2.50;;;17.20;99.90;;;;;;5038131;28;20465;-45
2021/08/27 10:07:29;;;;;;;2.90;2.27;;;17.20;99.90;;;;;;5041017;28;20446;-47
2021/08/27 10:10:01;;;;;;;2.63;2.43;;;17.20;99.90;;;;;;5050501;28;20440;-45
2021/08/27 10:12:33;;;;;;;3.07;2.50;;;17.20;99.90;;;;;;5044891;28;20453;-42
2021/08/27 10:15:08;;;;;;;4.63;2.60;;;17.20;99.90;;;;;;5042675;28;20542;-44
2021/08/27 10:17:40;;;;;;;3.00;2.80;;;17.20;99.90;;;;;;5060143;28;20505;-45
2021/08/27 10:20:13;;;;;;;4.80;2.67;;;17.20;99.90;;;;;;5060141;28;20552;-45
2021/08/27 10:22:44;;;;;;;2.53;2.33;;;17.20;99.90;;;;;;5059606;28;20803;-44
2021/08/27 10:25:16;;;;;;;3.20;2.90;;;17.20;99.90;;;;;;5029056;28;20483;-43
2021/08/27 10:27:49;;;;;;;2.60;2.40;;;17.10;99.90;;;;;;5051414;28;20453;-42
2021/08/27 10:30:42;;;;;;;3.23;2.43;;;17.10;99.90;;;;;;5049568;28;20456;-43
2021/08/27 10:33:13;;;;;;;3.00;2.70;;;17.10;99.90;;;;;;5047166;28;20541;-45
2021/08/27 10:35:53;;;;;;;3.03;2.83;;;17.10;99.90;;;;;;5046959;28;20548;-46
2021/08/27 10:38:52;;;;;;;2.60;2.40;;;17.10;99.90;;;;;;5059572;28;20452;-45
2021/08/27 10:41:27;;;;;;;2.93;2.73;;;17.00;99.90;;;;;;5078702;28;20447;-45
2021/08/27 10:44:16;;;;;;;5.07;3.10;;;17.00;99.90;;;;;;5080167;28;20452;-45
2021/08/27 10:47:09;;;;;;;2.67;2.47;;;17.00;99.90;;;;;;5080022;28;20443;-46
2021/08/27 10:50:01;;;;;;;2.83;2.60;;;17.00;99.90;;;;;;5075122;28;20444;-46
2021/08/27 10:52:37;;;;;;;3.50;2.83;;;17.00;99.90;;;;;;5072854;28;20443;-42
2021/08/27 10:55:19;;;;;;;2.77;2.57;;;17.00;99.90;;;;;;5061883;28;20488;-42
2021/08/27 10:58:05;;;;;;;2.97;2.67;;;17.00;99.90;;;;;;5059918;28;20478;-41
2021/08/27 11:00:41;;;;;;;2.70;2.50;;;17.00;99.90;;;;;;5060168;28;20452;-40
2021/08/27 11:03:15;;;;;;;3.07;2.87;;;17.00;99.90;;;;;;5060051;28;20448;-40
2021/08/27 11:05:47;;;;;;;2.67;2.30;;;17.00;99.90;;;;;;5060609;28;20475;-40
2021/08/27 11:08:20;;;;;;;2.87;2.57;;;17.00;99.90;;;;;;5070224;28;20561;-43
2021/08/27 11:11:24;;;;;;;2.97;2.67;;;17.00;99.90;;;;;;5080194;28;20831;-45
2021/08/27 11:14:14;;;;;;;2.70;2.50;;;17.00;99.90;;;;;;5050395;28;20455;-41
2021/08/27 11:16:55;;;;;;;2.90;2.70;;;17.00;99.90;;;;;;5059586;28;20831;-45
2021/08/27 11:19:29;;;;;;;3.07;2.87;;;16.90;99.90;;;;;;5039819;28;20457;-41
2021/08/27 11:22:24;;;;;;;2.70;2.50;;;17.00;99.90;;;;;;5046410;28;20476;-43
2021/08/27 11:25:17;;;;;;;2.63;2.43;;;17.00;99.90;;;;;;5058850;28;20456;-41
2021/08/27 11:28:16;;;;;;;2.80;2.60;;;17.00;99.90;;;;;;5059748;28;20441;-40
2021/08/27 11:31:01;;;;;;;3.13;2.93;;;17.00;99.90;;;;;;5048529;28;20486;-42
2021/08/27 11:33:54;;;;;;;3.53;2.70;;;17.10;99.90;;;;;;5058812;28;20476;-42
2021/08/27 11:36:26;;;;;;;3.20;2.80;;;17.10;99.90;;;;;;5049411;28;20449;-44
2021/08/27 11:38:59;;;;;;;2.73;2.50;;;17.00;99.90;;;;;;5038879;28;20506;-42
2021/08/27 11:41:30;;;;;;;3.57;2.80;;;17.00;99.90;;;;;;5039404;28;20491;-39
2021/08/27 11:44:10;;;;;;;3.30;3.00;;;17.00;99.90;;;;;;5039680;28;20528;-42
2021/08/27 11:46:48;;;;;;;3.23;2.47;;;17.00;99.90;;;;;;5039445;28;20461;-42
2021/08/27 11:49:35;;;;;;;3.37;3.07;;;17.00;99.90;;;;;;5031166;28;20508;-46
2021/08/27 11:52:27;;;;;;;3.07;2.77;;;17.00;99.90;;;;;;5058179;28;20509;-42
2021/08/27 11:55:02;;;;;;;3.00;2.70;;;17.00;99.90;;;;;;5058337;28;20488;-43
2021/08/27 11:57:34;;;;;;;4.17;3.03;;;17.00;99.90;;;;;;5058261;28;20817;-41
2021/08/27 12:00:11;;;;;;;3.63;2.73;;;17.00;99.90;;;;;;5058170;28;20445;-40
2021/08/27 12:02:43;;;;;;;5.17;2.80;;;17.00;99.90;;;;;;5058634;28;20452;-45
2021/08/27 12:05:14;;;;;;;3.30;3.00;;;16.90;99.90;;;;;;5043658;28;20496;-43
2021/08/27 12:07:55;;;;;;;3.00;2.80;;;16.90;99.90;;;;;;5056024;28;20805;-47
2021/08/27 12:10:27;;;;;;;2.87;2.53;;;17.00;99.90;;;;;;5059060;28;20440;-45
2021/08/27 12:12:59;;;;;;;2.87;2.67;;;17.00;99.90;;;;;;5058279;28;20456;-43
2021/08/27 12:15:33;;;;;;;2.90;2.60;;;17.00;99.90;;;;;;5060164;28;20480;-41
2021/08/27 12:18:06;;;;;;;3.10;2.90;;;17.00;99.90;;;;;;5030221;28;20515;-40
2021/08/27 12:20:39;;;;;;;2.90;2.70;;;17.00;99.90;;;;;;5061751;28;20524;-45
2021/08/27 12:23:16;;;;;;;6.57;3.03;;;17.00;99.90;;;;;;5061810;28;20973;-45
2021/08/27 12:25:53;;;;;;;2.73;2.53;;;17.00;99.90;;;;;;5062253;28;20452;-45
2021/08/27 12:28:33;;;;;;;2.93;2.73;;;17.00;99.90;;;;;;5047006;28;20485;-39
2021/08/27 12:31:04;;;;;;;3.37;3.03;;;17.00;99.90;;;;;;5043815;28;20978;-40
2021/08/27 12:33:58;;;;;;;3.07;2.77;;;17.00;99.90;;;;;;5060044;28;20491;-39
2021/08/27 12:36:35;;;;;;;4.37;2.97;;;17.00;99.90;;;;;;5062419;28;20491;-42
2021/08/27 12:39:09;;;;;;;3.67;3.37;;;17.00;99.90;;;;;;5049405;28;20458;-38
2021/08/27 12:41:40;;;;;;;2.93;2.73;;;17.00;99.90;;;;;;5042348;28;20795;-40
2021/08/27 12:44:12;;;;;;;3.03;2.80;;;17.00;99.90;;;;;;5042300;28;20923;-44
2021/08/27 12:46:48;;;;;;;3.90;3.00;;;17.00;99.90;;;;;;5049870;28;20445;-40
2021/08/27 12:49:21;;;;;;;3.37;3.07;;;17.00;99.90;;;;;;5061874;28;20500;-41
2021/08/27 12:51:57;;;;;;;3.40;3.10;;;16.90;99.90;;;;;;5044087;28;20843;-43
2021/08/27 12:54:42;;;;;;;3.30;3.00;;;16.90;99.90;;;;;;5041579;28;20444;-39
2021/08/27 12:57:16;;;;;;;3.67;3.37;;;17.00;99.90;;;;;;5043095;28;20484;-41
2021/08/27 13:00:02;;;;;;;3.37;3.07;;;17.00;99.90;;;;;;5042228;28;20454;-39
2021/08/27 13:02:38;;;;;;;3.70;3.40;;;17.00;99.90;;;;;;5041959;28;20452;-39
2021/08/27 13:05:10;;;;;;;3.10;2.90;;;16.90;99.90;;;;;;5042661;28;20477;-39
2021/08/27 13:07:41;;;;;;;3.50;3.17;;;17.00;99.90;;;;;;5041342;28;20540;-39
2021/08/27 13:10:22;;;;;;;7.03;3.53;;;16.90;99.90;;;;;;5042335;28;20428;-40
2021/08/27 13:12:53;;;;;;;3.03;2.73;;;17.00;99.90;;;;;;5048352;28;20915;-40
2021/08/27 13:15:27;;;;;;;3.13;2.87;;;16.90;99.90;;;;;;5049967;28;20447;-38
2021/08/27 13:18:04;;;;;;;3.50;3.20;;;16.90;99.90;;;;;;5041763;28;20457;-39
2021/08/27 13:20:53;;;;;;;3.70;3.40;;;16.90;99.90;;;;;;5041957;28;20481;-39
2021/08/27 13:23:26;;;;;;;3.43;2.90;;;17.00;99.90;;;;;;5041492;28;20514;-39
2021/08/27 13:26:00;;;;;;;3.00;2.80;;;16.90;99.90;;;;;;5041131;28;20453;-45
2021/08/27 13:28:31;;;;;;;3.03;2.70;;;17.00;99.90;;;;;;5051616;28;20457;-42